Time;durP1;ratioP1;P1;durP2;ratioP2;P2;SDS_P1;SDS_P2;PMS_P1;PMS_P2;Temp;Humidity;BMP_temperature;BMP_pressure;BME280_temperature;BME280_humidity;BME280_pressure;Samples;Min_cycle;Max_cycle;Signal;HPM_P1;HPM_P2
2022/04/04 00:01:43;;;;;;;8.07;6.00;;;5.40;44.50;;;;;;5131379;27;21138;-85
2022/04/04 00:04:10;;;;;;;4.83;4.27;;;5.30;45.00;;;;;;5094641;27;20454;-87
2022/04/04 00:06:38;;;;;;;10.43;5.00;;;5.20;45.30;;;;;;5115039;27;21019;-87
2022/04/04 00:09:05;;;;;;;9.90;4.97;;;5.10;45.90;;;;;;5114598;27;20445;-87
2022/04/04 00:11:32;;;;;;;5.40;4.17;;;5.10;45.40;;;;;;5096708;27;20529;-85
2022/04/04 00:13:59;;;;;;;5.27;3.90;;;5.10;44.60;;;;;;5106006;27;20463;-87
2022/04/04 00:16:27;;;;;;;6.40;3.90;;;5.20;44.80;;;;;;5132482;27;20461;-85
2022/04/04 00:18:54;;;;;;;4.47;3.93;;;5.20;45.00;;;;;;5130704;27;20923;-86
2022/04/04 00:21:21;;;;;;;4.53;3.73;;;5.30;44.70;;;;;;5111861;27;20843;-86
2022/04/04 00:23:48;;;;;;;7.20;4.67;;;5.30;44.50;;;;;;5132620;27;20522;-84
2022/04/04 00:26:15;;;;;;;9.67;4.93;;;5.30;44.20;;;;;;5129849;27;20445;-85
2022/04/04 00:28:42;;;;;;;11.37;5.20;;;5.30;44.30;;;;;;5113341;27;20449;-85
2022/04/04 00:31:09;;;;;;;6.40;4.37;;;5.30;44.60;;;;;;5131330;27;20449;-87
2022/04/04 00:33:37;;;;;;;10.03;5.03;;;5.40;44.30;;;;;;5114877;27;20474;-87
2022/04/04 00:36:05;;;;;;;7.77;4.80;;;5.40;43.70;;;;;;5114182;27;21151;-85
2022/04/04 00:38:32;;;;;;;7.43;3.90;;;5.30;43.90;;;;;;5117766;27;20457;-86
2022/04/04 00:40:59;;;;;;;5.60;3.70;;;5.30;44.20;;;;;;5132490;27;20941;-86
2022/04/04 00:43:25;;;;;;;4.67;3.30;;;5.30;44.50;;;;;;5132234;27;20465;-86
2022/04/04 00:45:53;;;;;;;6.57;4.43;;;5.30;44.30;;;;;;5112609;27;20460;-87
2022/04/04 00:48:20;;;;;;;12.00;5.50;;;5.30;44.30;;;;;;5096790;27;20463;-87
2022/04/04 00:50:48;;;;;;;9.03;6.07;;;5.30;44.30;;;;;;5116891;27;20445;-87
2022/04/04 00:53:15;;;;;;;9.27;4.83;;;5.30;44.30;;;;;;5122131;27;20472;-86
2022/04/04 00:55:42;;;;;;;4.00;3.57;;;5.30;44.30;;;;;;5133061;27;20472;-85
2022/04/04 00:58:10;;;;;;;5.10;4.30;;;5.30;44.20;;;;;;5103079;27;20469;-86
2022/04/04 01:00:37;;;;;;;7.20;4.50;;;5.20;43.80;;;;;;5114573;27;20444;-85
2022/04/04 01:03:04;;;;;;;16.30;4.77;;;5.20;44.10;;;;;;5114035;27;20489;-86
2022/04/04 01:05:31;;;;;;;14.73;7.03;;;5.20;44.40;;;;;;5133024;27;20541;-85
2022/04/04 01:07:59;;;;;;;12.23;6.10;;;5.20;44.80;;;;;;5113500;27;20464;-86
2022/04/04 01:10:28;;;;;;;6.97;4.60;;;5.20;45.00;;;;;;5131045;27;20595;-87
2022/04/04 01:12:56;;;;;;;6.37;4.50;;;5.10;44.60;;;;;;5114612;27;20452;-87
2022/04/04 01:15:30;;;;;;;10.43;4.67;;;5.10;44.50;;;;;;5097115;27;20829;-85
2022/04/04 01:17:57;;;;;;;4.17;3.47;;;5.00;44.90;;;;;;5104778;27;20563;-87
2022/04/04 01:20:24;;;;;;;4.77;4.20;;;5.00;45.10;;;;;;5116672;27;20446;-85
2022/04/04 01:22:52;;;;;;;4.50;3.70;;;5.00;44.80;;;;;;5120674;27;20480;-87
2022/04/04 01:25:26;;;;;;;4.70;4.20;;;5.00;44.90;;;;;;5104682;27;21159;-85
2022/04/04 01:27:55;;;;;;;9.90;4.07;;;5.00;45.10;;;;;;5099068;27;20449;-87
2022/04/04 01:30:23;;;;;;;3.83;3.33;;;5.00;45.00;;;;;;5101532;27;20452;-86
2022/04/04 01:32:51;;;;;;;4.00;3.17;;;5.00;44.90;;;;;;5138357;27;20444;-86
2022/04/04 01:35:20;;;;;;;5.93;4.00;;;5.00;44.80;;;;;;5119950;27;20451;-85
2022/04/04 01:37:48;;;;;;;4.40;4.00;;;5.00;44.60;;;;;;5101399;27;20475;-87
2022/04/04 01:40:15;;;;;;;8.10;4.97;;;5.00;44.60;;;;;;5102936;27;20452;-86
2022/04/04 01:42:48;;;;;;;7.10;4.53;;;5.00;44.70;;;;;;5135814;27;20469;-87
2022/04/04 01:45:15;;;;;;;5.83;3.97;;;5.00;44.80;;;;;;5121031;27;20887;-87
2022/04/04 01:47:43;;;;;;;6.60;4.90;;;5.00;44.80;;;;;;5119014;27;20532;-85
2022/04/04 01:50:10;;;;;;;5.93;4.43;;;5.00;44.80;;;;;;5107575;27;20477;-87
2022/04/04 01:52:37;;;;;;;9.13;5.00;;;5.00;44.80;;;;;;5099240;27;20573;-85
2022/04/04 01:55:05;;;;;;;8.23;4.27;;;5.00;44.80;;;;;;5135982;27;20437;-87
2022/04/04 01:57:33;;;;;;;7.33;4.10;;;5.00;44.90;;;;;;5118381;27;20536;-87
2022/04/04 02:00:04;;;;;;;10.20;6.00;;;5.00;45.00;;;;;;5101558;27;20448;-87
2022/04/04 02:02:40;;;;;;;5.43;4.03;;;5.00;44.90;;;;;;5120851;27;20492;-85
2022/04/04 02:05:07;;;;;;;3.83;3.50;;;5.00;45.20;;;;;;5118010;27;20448;-85
2022/04/04 02:07:35;;;;;;;3.67;3.37;;;5.00;45.10;;;;;;5118671;27;20444;-87
2022/04/04 02:10:03;;;;;;;7.50;4.60;;;4.90;44.80;;;;;;5126305;27;20935;-87
2022/04/04 02:12:30;;;;;;;6.63;3.83;;;4.90;45.40;;;;;;5084142;27;20547;-85
2022/04/04 02:14:57;;;;;;;5.17;4.40;;;4.80;45.70;;;;;;5136757;27;20463;-88
2022/04/04 02:17:25;;;;;;;6.83;4.40;;;4.40;46.20;;;;;;5115637;27;21345;-85
2022/04/04 02:19:52;;;;;;;8.40;4.13;;;4.40;46.40;;;;;;5119372;27;20461;-86
2022/04/04 02:22:19;;;;;;;7.30;3.70;;;4.10;46.50;;;;;;5102143;27;21072;-88
2022/04/04 02:24:46;;;;;;;3.37;3.13;;;4.10;46.80;;;;;;5109974;27;20463;-85
2022/04/04 02:27:13;;;;;;;4.10;3.43;;;4.10;46.50;;;;;;5099988;27;20999;-86
2022/04/04 02:29:40;;;;;;;5.33;3.87;;;4.10;46.50;;;;;;5113514;27;20438;-87
2022/04/04 02:32:08;;;;;;;7.63;4.30;;;4.20;46.30;;;;;;5086075;27;20568;-86
2022/04/04 02:34:37;;;;;;;7.20;3.73;;;4.10;45.90;;;;;;5087289;27;20444;-86
2022/04/04 02:37:04;;;;;;;4.90;4.40;;;4.10;46.30;;;;;;5139787;27;20469;-86
2022/04/04 02:39:31;;;;;;;6.97;3.97;;;4.20;46.50;;;;;;5115540;27;21019;-89
2022/04/04 02:41:58;;;;;;;5.47;4.97;;;4.20;46.80;;;;;;5110883;27;20475;-86
2022/04/04 02:44:27;;;;;;;5.20;3.33;;;4.30;46.50;;;;;;5118058;27;20521;-86
2022/04/04 02:46:54;;;;;;;7.80;3.80;;;4.20;46.40;;;;;;5109668;27;20455;-87
2022/04/04 02:49:21;;;;;;;5.60;3.97;;;4.20;46.70;;;;;;5135698;27;20473;-87
2022/04/04 02:51:49;;;;;;;5.77;4.37;;;4.30;46.80;;;;;;5093866;27;20464;-87
2022/04/04 02:54:16;;;;;;;8.13;4.60;;;4.40;46.50;;;;;;5101872;27;20441;-86
2022/04/04 02:56:42;;;;;;;6.43;3.50;;;4.40;46.30;;;;;;5088268;27;21044;-86
2022/04/04 02:59:10;;;;;;;38.33;5.37;;;4.40;46.50;;;;;;5107062;27;20545;-87
2022/04/04 03:01:37;;;;;;;4.63;3.73;;;4.40;46.10;;;;;;5092845;27;20434;-86
2022/04/04 03:04:04;;;;;;;5.87;4.17;;;4.30;46.30;;;;;;5107914;27;20464;-86
2022/04/04 03:06:32;;;;;;;7.10;3.80;;;4.40;46.30;;;;;;5092107;27;20441;-86
2022/04/04 03:09:01;;;;;;;10.40;4.33;;;4.40;45.80;;;;;;5103501;27;20437;-85
2022/04/04 03:11:28;;;;;;;5.57;3.90;;;4.30;46.00;;;;;;5101268;27;20437;-87
2022/04/04 03:13:55;;;;;;;5.70;3.93;;;4.20;46.50;;;;;;5115237;27;20521;-85
2022/04/04 03:16:22;;;;;;;5.57;4.07;;;4.20;46.50;;;;;;5138707;27;20796;-86
2022/04/04 03:18:50;;;;;;;9.40;5.17;;;4.20;46.60;;;;;;5108226;27;20471;-85
2022/04/04 03:21:17;;;;;;;4.47;4.03;;;4.20;46.60;;;;;;5108518;27;20533;-86
2022/04/04 03:23:44;;;;;;;6.00;4.37;;;4.30;46.60;;;;;;5120903;27;20450;-86
2022/04/04 03:26:13;;;;;;;5.10;4.23;;;4.30;46.40;;;;;;5124578;27;20453;-85
2022/04/04 03:28:40;;;;;;;16.90;4.80;;;4.30;46.00;;;;;;5103442;27;20561;-86
2022/04/04 03:31:07;;;;;;;24.03;11.10;;;4.20;45.90;;;;;;5119850;27;20482;-87
2022/04/04 03:33:36;;;;;;;20.83;11.90;;;4.10;46.40;;;;;;5122128;27;20925;-85
2022/04/04 03:36:03;;;;;;;53.37;24.53;;;4.10;46.60;;;;;;5090602;27;20442;-86
2022/04/04 03:38:31;;;;;;;55.37;23.90;;;4.20;46.70;;;;;;5092763;27;20882;-86
2022/04/04 03:40:58;;;;;;;46.20;21.83;;;4.20;46.40;;;;;;5118091;27;20444;-87
2022/04/04 03:43:27;;;;;;;28.47;15.20;;;4.20;46.20;;;;;;5093061;27;20476;-86
2022/04/04 03:45:54;;;;;;;13.23;7.27;;;4.10;46.80;;;;;;5108884;27;20452;-90
2022/04/04 03:48:21;;;;;;;10.23;5.77;;;4.00;47.40;;;;;;5122359;27;20473;-86
2022/04/04 03:50:51;;;;;;;6.83;5.37;;;4.10;47.50;;;;;;5108022;27;20448;-88
2022/04/04 03:53:18;;;;;;;5.27;3.47;;;4.10;47.20;;;;;;5091899;27;20464;-88
2022/04/04 03:55:45;;;;;;;9.57;5.90;;;4.00;46.90;;;;;;5119867;27;20457;-88
2022/04/04 03:58:12;;;;;;;5.20;4.37;;;3.90;47.40;;;;;;5087172;27;20854;-86
2022/04/04 04:00:41;;;;;;;10.30;4.97;;;4.00;46.80;;;;;;5120622;27;20521;-86
2022/04/04 04:03:09;;;;;;;6.37;4.47;;;3.90;46.40;;;;;;5108949;27;20484;-86
2022/04/04 04:05:37;;;;;;;5.70;4.10;;;3.80;47.00;;;;;;5108397;27;20445;-85
2022/04/04 04:08:04;;;;;;;6.30;4.63;;;3.60;47.30;;;;;;5103892;27;20453;-86
2022/04/04 04:10:31;;;;;;;8.70;4.73;;;3.60;47.20;;;;;;5089371;27;20452;-86
2022/04/04 04:13:01;;;;;;;8.40;5.10;;;3.60;47.20;;;;;;5104052;27;20474;-87
2022/04/04 04:15:28;;;;;;;7.27;5.40;;;3.70;47.90;;;;;;5102023;27;20442;-86
2022/04/04 04:17:56;;;;;;;9.80;4.90;;;3.80;47.70;;;;;;5105637;27;20491;-86
2022/04/04 04:20:31;;;;;;;7.37;4.43;;;3.90;47.30;;;;;;5086094;27;20450;-85
2022/04/04 04:23:01;;;;;;;6.80;4.67;;;4.00;47.10;;;;;;5089803;27;20461;-86
2022/04/04 04:25:30;;;;;;;7.73;6.23;;;4.00;46.80;;;;;;5090731;27;20450;-86
2022/04/04 04:27:59;;;;;;;6.00;4.60;;;4.00;46.70;;;;;;5123831;27;20452;-86
2022/04/04 04:30:27;;;;;;;6.97;5.30;;;3.90;46.70;;;;;;5111352;27;20438;-87
2022/04/04 04:32:55;;;;;;;8.33;5.20;;;3.80;47.20;;;;;;5107146;27;20479;-87
2022/04/04 04:35:23;;;;;;;6.53;4.33;;;3.80;47.50;;;;;;5103394;27;20453;-90
2022/04/04 04:37:51;;;;;;;7.63;4.60;;;3.80;47.40;;;;;;5110779;27;20473;-88
2022/04/04 04:40:18;;;;;;;10.70;5.50;;;3.80;47.80;;;;;;5102919;27;20432;-88
2022/04/04 04:42:47;;;;;;;11.63;5.70;;;3.80;47.70;;;;;;5101916;27;21053;-88
2022/04/04 04:45:14;;;;;;;8.57;5.63;;;3.80;47.80;;;;;;5101989;27;20460;-88
2022/04/04 04:47:42;;;;;;;8.97;5.60;;;3.90;47.80;;;;;;5104638;27;20447;-87
2022/04/04 04:50:12;;;;;;;8.70;5.47;;;4.00;47.30;;;;;;5092485;27;20514;-86
2022/04/04 04:52:39;;;;;;;7.53;5.13;;;3.90;47.00;;;;;;5141266;27;22158;-86
2022/04/04 04:55:07;;;;;;;18.53;7.20;;;3.90;47.20;;;;;;5113591;27;20442;-86
2022/04/04 04:57:34;;;;;;;10.23;7.53;;;3.90;47.60;;;;;;5133742;27;20453;-89
2022/04/04 05:00:04;;;;;;;9.57;6.03;;;3.70;48.10;;;;;;5105650;27;20438;-86
2022/04/04 05:02:31;;;;;;;9.17;7.00;;;3.60;48.30;;;;;;5105616;27;20477;-86
2022/04/04 05:04:59;;;;;;;12.13;8.03;;;3.60;48.00;;;;;;5115920;27;20461;-86
2022/04/04 05:07:27;;;;;;;14.13;7.40;;;3.70;48.00;;;;;;5110596;27;21036;-87
2022/04/04 05:09:55;;;;;;;11.63;7.20;;;3.80;48.00;;;;;;5131085;27;21207;-86
2022/04/04 05:12:22;;;;;;;9.67;6.53;;;3.80;47.70;;;;;;5111632;27;20465;-86
2022/04/04 05:14:49;;;;;;;9.10;6.60;;;3.80;47.30;;;;;;5104711;27;20447;-84
2022/04/04 05:17:16;;;;;;;9.00;6.70;;;3.80;48.20;;;;;;5134197;27;20441;-87
2022/04/04 05:19:44;;;;;;;11.60;6.77;;;3.90;47.70;;;;;;5136002;27;20464;-86
2022/04/04 05:22:14;;;;;;;7.90;5.90;;;3.90;47.00;;;;;;5121399;27;20526;-87
2022/04/04 05:24:42;;;;;;;12.87;8.60;;;3.80;47.20;;;;;;5107007;27;21017;-86
2022/04/04 05:27:10;;;;;;;7.93;5.60;;;3.50;48.90;;;;;;5099144;27;20468;-87
2022/04/04 05:29:37;;;;;;;12.30;6.83;;;3.30;49.70;;;;;;5102668;27;20436;-87
2022/04/04 05:32:05;;;;;;;13.80;7.50;;;3.30;50.20;;;;;;5112898;27;20454;-86
2022/04/04 05:34:32;;;;;;;9.67;7.27;;;3.50;49.80;;;;;;5132084;27;21271;-86
2022/04/04 05:37:00;;;;;;;11.13;6.90;;;3.80;49.20;;;;;;5133063;27;20458;-85
2022/04/04 05:39:27;;;;;;;8.93;6.47;;;4.00;48.60;;;;;;5113909;27;20483;-87
2022/04/04 05:41:55;;;;;;;10.40;7.00;;;4.10;48.20;;;;;;5112175;27;20465;-86
2022/04/04 05:44:22;;;;;;;11.57;7.40;;;4.20;48.20;;;;;;5131286;27;20460;-88
2022/04/04 05:46:49;;;;;;;11.20;7.27;;;4.30;48.20;;;;;;5120605;27;20864;-84
2022/04/04 05:49:16;;;;;;;12.73;7.43;;;4.40;48.20;;;;;;5132847;27;20453;-86
2022/04/04 05:51:43;;;;;;;9.10;6.50;;;4.50;48.10;;;;;;5121424;27;20879;-86
2022/04/04 05:54:10;;;;;;;12.90;8.00;;;4.50;48.10;;;;;;5111325;27;20484;-87
2022/04/04 05:56:37;;;;;;;11.20;6.40;;;4.50;48.30;;;;;;5128969;27;20438;-86
2022/04/04 05:59:06;;;;;;;11.57;7.50;;;4.50;48.50;;;;;;5131963;27;20481;-86
2022/04/04 06:01:33;;;;;;;11.97;7.70;;;4.60;48.70;;;;;;5129126;27;20451;-86
2022/04/04 06:04:00;;;;;;;19.53;7.93;;;4.50;49.00;;;;;;5127939;27;20464;-86
2022/04/04 06:06:27;;;;;;;16.20;7.90;;;4.50;49.40;;;;;;5129217;27;20437;-87
2022/04/04 06:08:55;;;;;;;10.40;7.83;;;4.70;49.40;;;;;;5114750;27;20464;-86
2022/04/04 06:11:22;;;;;;;11.67;8.37;;;4.70;49.00;;;;;;5132031;27;20551;-85
2022/04/04 06:13:49;;;;;;;10.77;9.00;;;4.70;49.00;;;;;;5129916;27;20445;-88
2022/04/04 06:16:18;;;;;;;12.67;8.57;;;4.60;49.50;;;;;;5130553;27;20974;-86
2022/04/04 06:18:45;;;;;;;11.83;9.20;;;4.70;49.70;;;;;;5130017;27;20851;-86
2022/04/04 06:21:12;;;;;;;11.90;8.10;;;4.70;49.30;;;;;;5131509;27;20473;-88
2022/04/04 06:23:38;;;;;;;13.17;8.53;;;4.80;49.40;;;;;;5130703;27;20476;-86
2022/04/04 06:26:06;;;;;;;15.13;9.57;;;4.80;49.50;;;;;;5129616;27;20527;-87
2022/04/04 06:28:33;;;;;;;15.63;8.53;;;4.80;49.90;;;;;;5130593;27;20450;-86
2022/04/04 06:31:00;;;;;;;13.27;9.53;;;4.90;50.00;;;;;;5128595;27;20476;-86
2022/04/04 06:33:28;;;;;;;11.97;8.50;;;5.00;49.80;;;;;;5127585;27;20467;-86
2022/04/04 06:35:55;;;;;;;14.83;10.27;;;5.00;49.70;;;;;;5129518;27;20539;-87
2022/04/04 06:38:23;;;;;;;13.20;8.87;;;5.10;49.80;;;;;;5129623;27;20469;-87
2022/04/04 06:40:51;;;;;;;14.93;9.90;;;5.10;50.10;;;;;;5127562;27;20468;-87
2022/04/04 06:43:19;;;;;;;16.30;9.10;;;5.20;50.10;;;;;;5129806;27;21079;-86
2022/04/04 06:45:47;;;;;;;15.63;9.87;;;5.20;50.30;;;;;;5131783;27;20972;-87
2022/04/04 06:48:14;;;;;;;10.73;7.30;;;5.10;50.60;;;;;;5128572;27;20453;-86
2022/04/04 06:50:42;;;;;;;13.23;8.50;;;5.20;51.10;;;;;;5115018;27;20445;-86
2022/04/04 06:53:10;;;;;;;13.03;8.33;;;5.10;51.40;;;;;;5125392;27;20548;-87
2022/04/04 06:55:37;;;;;;;13.03;9.60;;;5.20;51.50;;;;;;5133497;27;21130;-87
2022/04/04 06:58:04;;;;;;;12.20;9.53;;;5.30;51.40;;;;;;5129924;27;20531;-86
2022/04/04 07:00:31;;;;;;;23.20;11.73;;;5.40;51.20;;;;;;5132677;27;20452;-87
2022/04/04 07:02:59;;;;;;;19.20;13.47;;;5.50;51.00;;;;;;5132594;27;20492;-86
2022/04/04 07:05:26;;;;;;;22.10;13.40;;;5.50;50.80;;;;;;5132479;27;20482;-85
2022/04/04 07:07:54;;;;;;;16.77;11.80;;;5.50;50.70;;;;;;5121574;27;20924;-86
2022/04/04 07:10:22;;;;;;;21.63;12.30;;;5.60;50.40;;;;;;5111180;27;20464;-85
2022/04/04 07:12:49;;;;;;;19.23;11.33;;;5.60;50.30;;;;;;5132651;27;20478;-84
2022/04/04 07:15:16;;;;;;;31.17;11.77;;;5.50;50.50;;;;;;5131869;27;21058;-86
2022/04/04 07:17:45;;;;;;;14.53;10.37;;;5.60;50.30;;;;;;5114115;27;20469;-85
2022/04/04 07:20:13;;;;;;;16.60;10.30;;;5.70;49.80;;;;;;5120838;27;20527;-87
2022/04/04 07:22:42;;;;;;;16.13;10.60;;;5.60;49.80;;;;;;5112800;27;20992;-87
2022/04/04 07:25:11;;;;;;;10.23;8.23;;;5.80;50.00;;;;;;5131414;27;20450;-86
2022/04/04 07:27:40;;;;;;;17.73;11.33;;;5.80;49.50;;;;;;5121024;27;20954;-85
2022/04/04 07:30:09;;;;;;;14.37;8.30;;;5.90;49.10;;;;;;5130860;27;20450;-86
2022/04/04 07:32:36;;;;;;;13.13;8.50;;;6.00;49.10;;;;;;5132297;27;20845;-86
2022/04/04 07:35:04;;;;;;;13.93;9.40;;;6.20;48.50;;;;;;5132487;27;20453;-85
2022/04/04 07:37:31;;;;;;;12.13;7.63;;;6.30;48.20;;;;;;5132866;27;20534;-85
2022/04/04 07:39:59;;;;;;;11.73;8.20;;;6.40;48.20;;;;;;5129395;27;20505;-87
2022/04/04 07:42:27;;;;;;;16.17;8.63;;;6.50;47.30;;;;;;5131435;27;20578;-85
2022/04/04 07:44:55;;;;;;;8.63;6.93;;;6.60;47.00;;;;;;5111932;27;20456;-85
2022/04/04 07:47:22;;;;;;;9.73;6.53;;;6.60;46.50;;;;;;5128712;27;20937;-86
2022/04/04 07:49:49;;;;;;;9.33;6.50;;;6.70;46.40;;;;;;5131548;27;20448;-84
2022/04/04 07:52:16;;;;;;;11.50;7.20;;;6.70;46.40;;;;;;5132326;27;20971;-86
2022/04/04 07:54:43;;;;;;;9.80;7.30;;;6.80;46.20;;;;;;5130706;27;20807;-86
2022/04/04 07:57:10;;;;;;;6.60;5.20;;;6.90;45.10;;;;;;5113194;27;20940;-86
2022/04/04 07:59:39;;;;;;;8.40;5.30;;;6.80;44.70;;;;;;5130381;27;20465;-86
2022/04/04 08:02:06;;;;;;;6.93;5.33;;;6.90;45.20;;;;;;5131839;27;20481;-87
2022/04/04 08:04:33;;;;;;;6.43;5.30;;;6.80;43.30;;;;;;5130594;27;20586;-87
2022/04/04 08:07:00;;;;;;;12.10;6.27;;;6.90;43.50;;;;;;5131455;27;20474;-86
2022/04/04 08:09:27;;;;;;;5.53;4.70;;;7.20;43.80;;;;;;5132278;27;20442;-86
2022/04/04 08:11:55;;;;;;;12.23;6.80;;;7.30;42.90;;;;;;5129500;27;20481;-87
2022/04/04 08:14:23;;;;;;;9.03;5.47;;;7.30;42.70;;;;;;5133154;27;20520;-87
2022/04/04 08:16:52;;;;;;;11.87;7.27;;;7.30;42.10;;;;;;5133872;27;20457;-88
2022/04/04 08:19:20;;;;;;;12.37;8.40;;;7.60;42.60;;;;;;5130899;27;20744;-84
2022/04/04 08:21:47;;;;;;;6.33;5.20;;;7.50;40.90;;;;;;5131475;27;20567;-86
2022/04/04 08:24:15;;;;;;;5.33;4.83;;;7.50;41.30;;;;;;5115176;27;20446;-86
2022/04/04 08:26:42;;;;;;;5.67;4.80;;;7.50;41.30;;;;;;5128022;27;20445;-86
2022/04/04 08:29:09;;;;;;;5.90;4.97;;;7.70;41.50;;;;;;5128598;27;20455;-85
2022/04/04 08:31:38;;;;;;;8.57;5.33;;;7.80;40.40;;;;;;5132313;27;20457;-85
2022/04/04 08:34:07;;;;;;;5.97;5.23;;;7.80;39.90;;;;;;5132231;27;20453;-84
2022/04/04 08:36:34;;;;;;;7.97;5.20;;;7.90;39.70;;;;;;5130999;27;20830;-84
2022/04/04 08:39:01;;;;;;;7.07;4.70;;;8.10;40.00;;;;;;5132339;27;20475;-84
2022/04/04 08:41:32;;;;;;;5.60;4.80;;;8.30;39.70;;;;;;5131426;27;20441;-85
2022/04/04 08:44:01;;;;;;;5.83;4.83;;;8.50;38.90;;;;;;5133570;27;20462;-87
2022/04/04 08:46:29;;;;;;;7.60;4.93;;;8.40;38.20;;;;;;5096175;27;20446;-85
2022/04/04 08:48:58;;;;;;;6.73;4.47;;;8.30;37.70;;;;;;5113543;27;20434;-86
2022/04/04 08:51:27;;;;;;;9.87;6.37;;;8.40;38.10;;;;;;5127932;27;20638;-86
2022/04/04 08:53:55;;;;;;;7.30;4.70;;;8.60;37.80;;;;;;5115935;27;20519;-86
2022/04/04 08:56:24;;;;;;;7.07;4.80;;;8.80;37.90;;;;;;5121465;27;20456;-86
2022/04/04 08:58:51;;;;;;;5.20;4.70;;;8.90;36.60;;;;;;5121543;27;20483;-83
2022/04/04 09:01:19;;;;;;;5.20;4.60;;;9.00;37.00;;;;;;5132785;27;20453;-85
2022/04/04 09:03:52;;;;;;;5.10;4.60;;;9.00;35.50;;;;;;5115172;27;20996;-86
2022/04/04 09:06:20;;;;;;;8.87;5.43;;;8.90;36.00;;;;;;5098608;28;20436;-85
2022/04/04 09:08:50;;;;;;;6.23;5.00;;;8.90;35.50;;;;;;5101216;27;20453;-87
2022/04/04 09:11:18;;;;;;;5.20;4.70;;;9.00;35.60;;;;;;5134757;27;20473;-84
2022/04/04 09:13:45;;;;;;;5.73;5.00;;;9.00;35.40;;;;;;5131481;27;21455;-87
2022/04/04 09:16:12;;;;;;;7.00;5.37;;;9.20;36.20;;;;;;5097834;27;20479;-86
2022/04/04 09:18:49;;;;;;;8.53;5.60;;;9.60;36.60;;;;;;5118619;27;20445;-86
2022/04/04 09:21:32;;;;;;;6.40;5.80;;;9.40;35.40;;;;;;5103681;27;20529;-87
2022/04/04 09:24:02;;;;;;;6.57;5.53;;;9.30;35.10;;;;;;5114975;27;20429;-86
2022/04/04 09:26:31;;;;;;;6.17;5.23;;;9.40;35.30;;;;;;5103284;27;20448;-85
2022/04/04 09:29:00;;;;;;;5.73;4.63;;;9.60;35.20;;;;;;5101403;27;20437;-87
2022/04/04 09:31:27;;;;;;;6.47;4.73;;;9.70;35.60;;;;;;5139279;27;20445;-84
2022/04/04 09:33:59;;;;;;;6.90;4.50;;;9.70;35.10;;;;;;5122930;27;20438;-89
2022/04/04 09:36:26;;;;;;;7.83;5.27;;;9.70;35.10;;;;;;5113749;27;20456;-87
2022/04/04 09:39:03;;;;;;;7.90;5.77;;;9.70;35.60;;;;;;5138555;27;20440;-86
2022/04/04 09:41:32;;;;;;;5.43;4.73;;;9.90;35.70;;;;;;5126088;27;20454;-89
2022/04/04 09:44:01;;;;;;;8.33;5.87;;;9.90;34.60;;;;;;5137959;27;20434;-87
2022/04/04 09:46:33;;;;;;;7.20;5.37;;;9.70;35.70;;;;;;5103698;27;20453;-87
2022/04/04 09:49:06;;;;;;;6.20;4.77;;;9.90;35.60;;;;;;5118564;27;20438;-86
2022/04/04 09:51:42;;;;;;;5.27;4.60;;;10.00;34.70;;;;;;5124395;27;20460;-86
2022/04/04 09:54:13;;;;;;;8.70;6.07;;;10.00;33.80;;;;;;5136811;27;20445;-86
2022/04/04 09:56:41;;;;;;;7.50;6.20;;;10.00;33.40;;;;;;5103827;27;20445;-87
2022/04/04 09:59:12;;;;;;;8.50;5.70;;;10.00;33.90;;;;;;5119195;27;20449;-88
2022/04/04 10:01:40;;;;;;;8.97;5.90;;;10.00;33.50;;;;;;5103967;27;20489;-88
2022/04/04 10:04:09;;;;;;;9.00;5.40;;;10.00;34.30;;;;;;5109366;27;20487;-85
2022/04/04 10:06:38;;;;;;;7.73;6.50;;;10.10;34.40;;;;;;5112002;27;20442;-88
2022/04/04 10:09:05;;;;;;;6.87;5.13;;;10.10;33.50;;;;;;5105269;27;20450;-85
2022/04/04 10:11:35;;;;;;;6.20;5.20;;;10.00;33.70;;;;;;5115342;27;20512;-86
2022/04/04 10:14:02;;;;;;;8.43;5.83;;;10.50;32.70;;;;;;5105500;27;20446;-88
2022/04/04 10:16:30;;;;;;;9.90;5.47;;;10.60;32.40;;;;;;5122417;27;20460;-87
2022/04/04 10:18:58;;;;;;;6.33;5.63;;;10.60;33.00;;;;;;5132100;27;20967;-85
2022/04/04 10:21:26;;;;;;;10.87;6.70;;;10.80;32.60;;;;;;5131348;27;20566;-84
2022/04/04 10:23:56;;;;;;;7.00;5.97;;;10.60;32.30;;;;;;5098613;27;20434;-87
2022/04/04 10:26:28;;;;;;;6.37;5.20;;;10.80;33.80;;;;;;5113640;27;21051;-86
2022/04/04 10:29:12;;;;;;;6.30;5.70;;;11.40;32.60;;;;;;5097388;27;21161;-88
2022/04/04 10:31:47;;;;;;;5.70;5.20;;;11.60;31.80;;;;;;5129515;27;20470;-86
2022/04/04 10:34:17;;;;;;;16.50;5.73;;;11.70;32.00;;;;;;5113573;27;20476;-87
2022/04/04 10:37:01;;;;;;;6.73;5.00;;;11.90;31.80;;;;;;5129006;27;20936;-85
2022/04/04 10:39:44;;;;;;;5.30;4.80;;;11.90;31.20;;;;;;5131335;27;20453;-86
2022/04/04 10:42:30;;;;;;;10.63;5.47;;;11.90;31.80;;;;;;5131606;27;20483;-86
2022/04/04 10:45:05;;;;;;;6.60;5.90;;;12.00;32.40;;;;;;5130886;27;20471;-85
2022/04/04 10:47:33;;;;;;;7.87;5.90;;;12.30;32.90;;;;;;5132270;27;20436;-86
2022/04/04 10:50:19;;;;;;;6.30;5.40;;;12.80;33.10;;;;;;5128885;27;20445;-86
2022/04/04 10:52:46;;;;;;;5.63;5.13;;;12.80;31.10;;;;;;5129076;27;20485;-86
2022/04/04 10:55:30;;;;;;;6.90;5.83;;;13.10;32.40;;;;;;5109450;27;20530;-86
2022/04/04 10:57:59;;;;;;;7.50;5.93;;;13.60;31.90;;;;;;5131448;27;20448;-86
2022/04/04 11:00:35;;;;;;;8.00;5.70;;;13.20;30.20;;;;;;5129908;27;20509;-86
2022/04/04 11:03:02;;;;;;;7.53;5.30;;;12.80;30.10;;;;;;5108773;27;20548;-85
2022/04/04 11:08:32;;;;;;;6.10;5.50;;;12.70;31.60;;;;;;5128601;27;20434;-86
2022/04/04 11:10:59;;;;;;;6.60;5.93;;;12.80;30.80;;;;;;5133184;27;20512;-86
2022/04/04 11:13:26;;;;;;;6.07;5.47;;;12.60;30.00;;;;;;5131438;27;21126;-86
2022/04/04 11:15:55;;;;;;;6.30;5.40;;;12.80;30.70;;;;;;5131106;27;20448;-85
2022/04/04 11:18:24;;;;;;;4.87;4.30;;;12.50;29.80;;;;;;5128355;27;20476;-85
2022/04/04 11:20:58;;;;;;;5.37;4.90;;;12.00;29.20;;;;;;5129837;27;21024;-86
2022/04/04 11:23:33;;;;;;;7.70;4.63;;;11.80;30.70;;;;;;5114771;27;20465;-85
2022/04/04 11:26:04;;;;;;;5.40;4.23;;;12.00;29.50;;;;;;5131311;27;20532;-86
2022/04/04 11:28:36;;;;;;;8.37;5.30;;;12.10;30.00;;;;;;5129932;27;20823;-85
2022/04/04 11:31:09;;;;;;;6.13;4.70;;;12.00;30.00;;;;;;5111108;27;20917;-85
2022/04/04 11:33:45;;;;;;;5.93;4.73;;;12.20;32.70;;;;;;5132072;27;20552;-85
2022/04/04 11:36:21;;;;;;;5.67;4.63;;;12.60;31.50;;;;;;5134205;27;20437;-86
2022/04/04 11:38:51;;;;;;;5.83;4.60;;;13.00;30.80;;;;;;5130093;27;20515;-84
2022/04/04 11:41:20;;;;;;;6.87;5.10;;;13.30;29.70;;;;;;5131253;27;20559;-86
2022/04/04 11:43:50;;;;;;;8.07;4.40;;;13.30;30.30;;;;;;5134533;27;20508;-85
2022/04/04 11:46:19;;;;;;;5.33;4.83;;;13.30;30.20;;;;;;5133199;27;20456;-86
2022/04/04 11:48:51;;;;;;;5.60;4.70;;;13.50;29.10;;;;;;5133145;27;20441;-86
2022/04/04 11:51:20;;;;;;;8.00;6.00;;;13.20;29.10;;;;;;5131314;27;20440;-86
2022/04/04 11:53:48;;;;;;;5.50;4.80;;;12.80;29.10;;;;;;5115564;27;20468;-85
2022/04/04 11:56:21;;;;;;;5.77;4.90;;;12.80;29.70;;;;;;5133462;27;20449;-85
2022/04/04 11:58:51;;;;;;;6.77;4.50;;;13.00;29.70;;;;;;5134236;27;20801;-86
2022/04/04 12:01:19;;;;;;;5.90;4.30;;;13.10;29.80;;;;;;5120244;27;20472;-86
2022/04/04 12:03:50;;;;;;;5.70;5.10;;;13.30;30.50;;;;;;5130074;27;21059;-86
2022/04/04 12:06:17;;;;;;;5.70;4.73;;;13.50;29.50;;;;;;5132854;27;20536;-84
2022/04/04 12:08:44;;;;;;;5.57;3.97;;;13.40;28.70;;;;;;5132230;27;20457;-85
2022/04/04 12:11:12;;;;;;;8.40;5.40;;;13.00;28.60;;;;;;5130237;27;20437;-85
2022/04/04 12:13:49;;;;;;;6.30;5.00;;;12.40;29.80;;;;;;5114902;27;20469;-87
2022/04/04 12:16:18;;;;;;;6.90;5.17;;;12.40;31.40;;;;;;5131593;27;20468;-86
2022/04/04 12:18:53;;;;;;;4.60;4.20;;;12.90;30.40;;;;;;5132903;27;20442;-85
2022/04/04 12:21:21;;;;;;;5.23;4.73;;;13.00;29.40;;;;;;5130380;27;20457;-85
2022/04/04 12:26:34;;;;;;;7.37;5.10;;;13.10;30.00;;;;;;5131516;27;20448;-85
2022/04/04 12:29:03;;;;;;;5.10;4.60;;;12.80;28.90;;;;;;5129802;27;20909;-85
2022/04/04 12:31:32;;;;;;;10.30;8.40;;;12.70;29.80;;;;;;5131556;27;20461;-84
2022/04/04 12:34:02;;;;;;;6.70;5.50;;;12.40;29.40;;;;;;5096231;27;20445;-84
2022/04/04 12:36:30;;;;;;;6.27;5.67;;;12.40;29.40;;;;;;5130260;27;20442;-84
2022/04/04 12:38:59;;;;;;;8.63;6.17;;;12.20;29.90;;;;;;5129263;27;20529;-86
2022/04/04 12:41:27;;;;;;;6.10;5.50;;;12.20;30.10;;;;;;5128249;27;20859;-87
2022/04/04 12:44:00;;;;;;;9.07;6.10;;;12.20;29.50;;;;;;5129375;27;20473;-84
2022/04/04 12:46:30;;;;;;;4.93;4.40;;;12.40;29.80;;;;;;5131275;27;20438;-86
2022/04/04 12:49:13;;;;;;;8.40;5.07;;;12.50;29.70;;;;;;5132572;27;20440;-86
2022/04/04 12:51:50;;;;;;;7.30;6.60;;;12.70;29.50;;;;;;5124687;27;20442;-86
2022/04/04 12:54:25;;;;;;;8.97;7.97;;;12.30;29.10;;;;;;5129209;27;20976;-86
2022/04/04 12:56:52;;;;;;;8.13;5.13;;;12.40;29.30;;;;;;5127864;27;20449;-86
2022/04/04 12:59:19;;;;;;;5.80;5.07;;;12.50;29.10;;;;;;5130653;27;20441;-85
2022/04/04 13:02:03;;;;;;;7.27;6.40;;;12.30;28.70;;;;;;5085389;27;21066;-85
2022/04/04 13:04:32;;;;;;;6.80;5.33;;;12.00;28.80;;;;;;5127120;27;21235;-86